createdAt,value
2018-02-02T00:00:26.588Z,1.7
2018-02-02T00:01:36.546Z,1.68
2018-02-02T00:02:46.231Z,1.63
2018-02-02T00:03:56.472Z,1.61
2018-02-02T00:05:06.176Z,1.63
2018-02-02T00:06:15.861Z,1.63
2018-02-02T00:07:25.808Z,1.61
2018-02-02T00:08:35.755Z,1.45
2018-02-02T00:09:45.708Z,1.56
2018-02-02T00:10:55.660Z,1.48
2018-02-02T00:12:05.606Z,1.53
2018-02-02T00:13:15.668Z,1.53
2018-02-02T00:14:25.344Z,1.63
2018-02-02T00:15:35.298Z,1.56
2018-02-02T00:16:45.235Z,1.46
2018-02-02T00:17:55.225Z,1.46
2018-02-02T00:19:05.175Z,1.46
2018-02-02T00:20:15.115Z,1.48
2018-02-02T00:21:24.805Z,1.45
2018-02-02T00:22:34.738Z,1.49
2018-02-02T00:23:44.689Z,1.39
2018-02-02T00:24:54.628Z,1.4
2018-02-02T00:26:04.315Z,1.38
2018-02-02T00:27:14.260Z,1.42
2018-02-02T00:28:24.208Z,1.34
2018-02-02T00:29:34.152Z,1.36
2018-02-02T00:30:44.097Z,1.31
2018-02-02T00:31:54.037Z,1.38
2018-02-02T00:33:03.734Z,1.3
2018-02-02T00:34:13.675Z,1.38
2018-02-02T00:35:23.616Z,1.32
2018-02-02T00:36:33.300Z,1.28
2018-02-02T00:37:42.983Z,1.34
2018-02-02T00:38:52.415Z,1.36
2018-02-02T00:40:02.373Z,1.39
2018-02-02T00:41:12.057Z,1.32
2018-02-02T00:42:22.014Z,1.3
2018-02-02T00:43:31.964Z,1.36
2018-02-02T00:44:41.695Z,1.38
2018-02-02T00:45:51.630Z,1.39
2018-02-02T00:47:01.312Z,1.39
2018-02-02T00:48:10.996Z,1.32
2018-02-02T00:49:20.952Z,1.36
2018-02-02T00:50:30.886Z,1.31
2018-02-02T00:51:40.580Z,1.24
2018-02-02T00:52:50.518Z,1.25
2018-02-02T00:54:00.459Z,1.21
2018-02-02T00:55:09.889Z,1.24
2018-02-02T00:56:19.830Z,1.21
2018-02-02T00:57:29.260Z,1.24
2018-02-02T00:58:39.236Z,1.24
2018-02-02T00:59:49.181Z,1.14
2018-02-02T01:00:59.126Z,1.21
2018-02-02T01:02:08.808Z,1.24
2018-02-02T01:03:18.501Z,1.25
2018-02-02T01:04:28.448Z,1.2
2018-02-02T01:05:37.879Z,1.14
2018-02-02T01:06:47.844Z,1.13
2018-02-02T01:07:57.792Z,1.14
2018-02-02T01:09:07.558Z,1.18
2018-02-02T01:10:17.575Z,1.14
2018-02-02T01:11:27.260Z,1.18
2018-02-02T01:12:37.196Z,1.2
2018-02-02T01:13:46.876Z,1.07
2018-02-02T01:14:56.814Z,1.12
2018-02-02T01:16:06.493Z,1.12
2018-02-02T01:17:16.426Z,1.07
2018-02-02T01:18:26.112Z,1.12
2018-02-02T01:19:36.076Z,1.18
2018-02-02T01:20:46.004Z,1.12
2018-02-02T01:21:56.042Z,1.13
2018-02-02T01:23:06.000Z,1.16
2018-02-02T01:24:15.939Z,1.16
2018-02-02T01:25:26.118Z,1.1
2018-02-02T01:26:35.797Z,1.1
2018-02-02T01:27:45.742Z,1.07
2018-02-02T01:28:55.691Z,1.04
2018-02-02T01:30:05.632Z,1.07
2018-02-02T01:31:15.584Z,1.09
2018-02-02T01:32:25.524Z,1.06
2018-02-02T01:33:35.459Z,1.12
2018-02-02T01:34:45.392Z,1.06
2018-02-02T01:35:55.340Z,1.12
2018-02-02T01:37:05.286Z,1.04
2018-02-02T01:38:15.293Z,0.99
2018-02-02T01:39:25.239Z,1
2018-02-02T01:40:35.198Z,0.96
2018-02-02T01:41:45.143Z,1.06
2018-02-02T01:42:55.085Z,0.95
2018-02-02T01:44:04.796Z,0.94
2018-02-02T01:45:14.486Z,0.96
2018-02-02T01:46:24.177Z,0.99
2018-02-02T01:47:33.651Z,0.95
2018-02-02T01:48:43.600Z,0.89
2018-02-02T01:49:53.288Z,0.86
2018-02-02T01:51:03.017Z,0.91
2018-02-02T01:52:12.969Z,0.91
2018-02-02T01:53:22.908Z,0.95
2018-02-02T01:54:32.638Z,0.96
2018-02-02T01:55:42.575Z,0.89
2018-02-02T01:56:52.522Z,0.94
2018-02-02T01:58:02.207Z,0.89
2018-02-02T01:59:11.898Z,0.95
2018-02-02T02:00:21.841Z,0.89
2018-02-02T02:01:31.835Z,0.95
2018-02-02T02:02:41.773Z,0.89
2018-02-02T02:03:51.714Z,0.81
2018-02-02T02:05:01.392Z,0.86
2018-02-02T02:06:10.819Z,0.84
2018-02-02T02:07:20.747Z,0.82
2018-02-02T02:08:30.703Z,0.81
2018-02-02T02:09:40.652Z,0.73
2018-02-02T02:10:50.346Z,0.74
2018-02-02T02:11:59.776Z,0.76
2018-02-02T02:13:09.723Z,0.77
2018-02-02T02:14:19.396Z,0.7
2018-02-02T02:15:29.339Z,0.68
2018-02-02T02:16:39.322Z,0.7
2018-02-02T02:17:48.745Z,0.71
2018-02-02T02:18:58.431Z,0.74
2018-02-02T02:20:08.120Z,0.7
2018-02-02T02:21:18.067Z,0.64
2018-02-02T02:22:27.994Z,0.64
2018-02-02T02:23:37.924Z,0.55
2018-02-02T02:24:47.860Z,0.55
2018-02-02T02:25:57.555Z,0.59
2018-02-02T02:27:07.512Z,0.66
2018-02-02T02:28:17.449Z,0.63
2018-02-02T02:29:27.135Z,0.56
2018-02-02T02:30:37.079Z,0.56
2018-02-02T02:31:47.021Z,0.56
2018-02-02T02:32:56.959Z,0.55
2018-02-02T02:34:06.911Z,0.52
2018-02-02T02:35:16.866Z,0.48
2018-02-02T02:36:26.564Z,0.47
2018-02-02T02:37:36.515Z,0.49
2018-02-02T02:38:46.199Z,0.56
2018-02-02T02:39:55.887Z,0.48
2018-02-02T02:41:05.825Z,0.48
2018-02-02T02:42:15.503Z,0.63
2018-02-02T02:43:25.443Z,0.51
2018-02-02T02:44:35.139Z,0.52
2018-02-02T02:45:45.150Z,0.42
2018-02-02T02:46:55.091Z,0.47
2018-02-02T02:48:04.788Z,0.37
2018-02-02T02:49:14.740Z,0.48
2018-02-02T02:50:24.417Z,0.36
2018-02-02T02:51:34.347Z,0.37
2018-02-02T02:52:44.283Z,0.31
2018-02-02T02:53:54.219Z,0.36
2018-02-02T02:55:03.897Z,0.36
2018-02-02T02:56:13.581Z,0.34
2018-02-02T02:57:23.266Z,0.34
2018-02-02T02:58:33.205Z,0.29
2018-02-02T02:59:42.646Z,0.3
2018-02-02T03:00:52.582Z,0.37
2018-02-02T03:02:02.526Z,0.37
2018-02-02T03:03:12.470Z,0.33
2018-02-02T03:04:22.149Z,0.27
2018-02-02T03:05:31.831Z,0.31
2018-02-02T03:06:41.525Z,0.23
2018-02-02T03:07:51.512Z,0.27
2018-02-02T03:09:01.483Z,0.19
2018-02-02T03:10:11.465Z,0.23
2018-02-02T03:11:21.453Z,0.24
2018-02-02T03:12:31.179Z,0.2
2018-02-02T03:13:40.899Z,0.19
2018-02-02T03:14:50.865Z,0.19
2018-02-02T03:16:00.580Z,0.23
2018-02-02T03:17:10.553Z,0.19
2018-02-02T03:18:20.268Z,0.19
2018-02-02T03:19:29.984Z,0.16
2018-02-02T03:20:39.953Z,0.16
2018-02-02T03:21:49.941Z,0.18
2018-02-02T03:22:59.663Z,0.13
2018-02-02T03:24:09.653Z,0.11
2018-02-02T03:25:19.388Z,0.16
2018-02-02T03:26:29.114Z,0.13
2018-02-02T03:27:39.086Z,0.09
2018-02-02T03:28:49.061Z,0.11
2018-02-02T03:29:59.026Z,0.09
2018-02-02T03:31:09.025Z,0.09
2018-02-02T03:32:18.748Z,0.01
2018-02-02T03:33:28.775Z,0.09
2018-02-02T03:34:38.494Z,0.15
2018-02-02T03:35:48.233Z,0.06
2018-02-02T03:36:58.203Z,0.16
2018-02-02T03:38:08.171Z,0.13
2018-02-02T03:39:18.140Z,0.15
2018-02-02T03:40:28.118Z,0.15
2018-02-02T03:41:38.096Z,0.08
2018-02-02T03:42:47.825Z,0.12
2018-02-02T03:43:57.563Z,0.09
2018-02-02T03:45:07.290Z,0.12
2018-02-02T03:46:17.261Z,0.18
2018-02-02T03:47:26.967Z,0.16
2018-02-02T03:48:36.955Z,0.11
2018-02-02T03:49:46.672Z,0.16
2018-02-02T03:50:56.137Z,0.15
2018-02-02T03:52:05.870Z,0.18
2018-02-02T03:53:15.593Z,0.23
2018-02-02T03:54:25.320Z,0.15
2018-02-02T03:55:35.034Z,0.16
2018-02-02T03:56:45.008Z,0.18
2018-02-02T03:57:55.016Z,0.16
2018-02-02T03:59:04.485Z,0.2
2018-02-02T04:00:14.456Z,0.15
2018-02-02T04:01:24.182Z,0.16
2018-02-02T04:02:34.157Z,0.2
2018-02-02T04:03:44.142Z,0.19
2018-02-02T04:04:53.857Z,0.18
2018-02-02T04:06:03.839Z,0.23
2018-02-02T04:07:13.824Z,0.15
2018-02-02T04:08:23.544Z,0.18
2018-02-02T04:09:33.272Z,0.09
2018-02-02T04:10:43.005Z,0.18
2018-02-02T04:11:52.989Z,0.23
2018-02-02T04:13:02.970Z,0.11
2018-02-02T04:14:12.706Z,0.19
2018-02-02T04:15:22.425Z,0.19
2018-02-02T04:16:32.406Z,0.18
2018-02-02T04:17:42.368Z,0.16
2018-02-02T04:18:52.310Z,0.18
2018-02-02T04:20:02.560Z,0.13
2018-02-02T04:21:12.512Z,0.18
2018-02-02T04:22:22.447Z,0.2
2018-02-02T04:23:32.130Z,0.16
2018-02-02T04:24:41.823Z,0.19
2018-02-02T04:25:51.762Z,0.23
2018-02-02T04:27:01.696Z,0.18
2018-02-02T04:28:11.399Z,0.19
2018-02-02T04:29:21.381Z,0.23
2018-02-02T04:30:30.855Z,0.13
2018-02-02T04:31:40.838Z,0.18
2018-02-02T04:32:50.817Z,0.19
2018-02-02T04:34:00.530Z,0.15
2018-02-02T04:35:10.500Z,0.2
2018-02-02T04:36:20.223Z,0.16
2018-02-02T04:37:30.209Z,0.23
2018-02-02T04:38:39.947Z,0.3
2018-02-02T04:39:49.928Z,0.19
2018-02-02T04:40:59.895Z,0.27
2018-02-02T04:42:09.612Z,0.31
2018-02-02T04:43:19.604Z,0.3
2018-02-02T04:44:29.317Z,0.34
2018-02-02T04:45:39.032Z,0.37
2018-02-02T04:46:48.998Z,0.36
2018-02-02T04:47:58.979Z,0.27
2018-02-02T04:49:08.753Z,0.31
2018-02-02T04:50:18.724Z,0.24
2018-02-02T04:51:28.201Z,0.3
2018-02-02T04:52:37.925Z,0.27
2018-02-02T04:53:47.923Z,0.19
2018-02-02T04:54:57.388Z,0.2
2018-02-02T04:56:07.425Z,0.18
2018-02-02T04:57:17.409Z,0.31
2018-02-02T04:58:27.391Z,0.27
2018-02-02T04:59:37.360Z,0.37
2018-02-02T05:00:47.072Z,0.31
2018-02-02T05:01:57.062Z,0.2
2018-02-02T05:03:07.044Z,0.24
2018-02-02T05:04:16.759Z,0.19
2018-02-02T05:05:26.731Z,0.19
2018-02-02T05:06:36.691Z,0.19
2018-02-02T05:07:46.691Z,0.27
2018-02-02T05:08:56.410Z,0.19
2018-02-02T05:10:06.445Z,0.15
2018-02-02T05:11:16.428Z,0.15
2018-02-02T05:12:26.393Z,0.2
2018-02-02T05:13:36.116Z,0.23
2018-02-02T05:14:45.316Z,0.2
2018-02-02T05:15:55.294Z,0.19
2018-02-02T05:17:05.268Z,0.19
2018-02-02T05:18:14.979Z,0.18
2018-02-02T05:19:24.684Z,0.16
2018-02-02T05:20:34.672Z,0.15
2018-02-02T05:21:44.628Z,0.24
2018-02-02T05:22:54.353Z,0.24
2018-02-02T05:24:04.351Z,0.15
2018-02-02T05:25:14.079Z,0.13
2018-02-02T05:26:24.057Z,0.16
2018-02-02T05:27:33.811Z,0.16
2018-02-02T05:28:43.792Z,0.13
2018-02-02T05:29:53.757Z,0.09
2018-02-02T05:31:03.754Z,0.06
2018-02-02T05:32:13.476Z,0.01
2018-02-02T05:33:23.456Z,0.13
2018-02-02T05:34:32.932Z,0.11
2018-02-02T05:35:42.907Z,0.12
2018-02-02T05:36:52.913Z,0.16
2018-02-02T05:38:02.638Z,0.13
2018-02-02T05:39:12.353Z,0.18
2018-02-02T05:40:22.344Z,0.23
2018-02-02T05:41:32.329Z,0.18
2018-02-02T05:42:42.297Z,0.18
2018-02-02T05:43:52.304Z,0.23
2018-02-02T05:45:02.305Z,0.26
2018-02-02T05:46:12.036Z,0.15
2018-02-02T05:47:21.742Z,0.24
2018-02-02T05:48:31.197Z,0.19
2018-02-02T05:49:41.176Z,0.23
2018-02-02T05:50:50.892Z,0.19
2018-02-02T05:52:00.627Z,0.19
2018-02-02T05:53:10.352Z,0.19
2018-02-02T05:54:20.321Z,0.3
2018-02-02T05:55:30.047Z,0.27
2018-02-02T05:56:39.766Z,0.3
2018-02-02T05:57:49.473Z,0.26
2018-02-02T05:58:59.196Z,0.2
2018-02-02T06:00:09.176Z,0.34
2018-02-02T06:01:19.157Z,0.34
2018-02-02T06:02:29.113Z,0.33
2018-02-02T06:03:39.103Z,0.34
2018-02-02T06:04:49.098Z,0.39
2018-02-02T06:05:59.078Z,0.3
2018-02-02T06:07:08.819Z,0.31
2018-02-02T06:08:18.542Z,0.3
2018-02-02T06:09:28.536Z,0.31
2018-02-02T06:10:38.540Z,0.34
2018-02-02T06:11:48.558Z,0.39
2018-02-02T06:12:58.548Z,0.39
2018-02-02T06:14:08.272Z,0.37
2018-02-02T06:15:17.997Z,0.49
2018-02-02T06:16:27.943Z,0.45
2018-02-02T06:17:37.915Z,0.45
2018-02-02T06:18:47.894Z,0.49
2018-02-02T06:19:57.605Z,0.39
2018-02-02T06:21:07.323Z,0.48
2018-02-02T06:22:17.046Z,0.48
2018-02-02T06:23:26.773Z,0.47
2018-02-02T06:24:36.756Z,0.52
2018-02-02T06:25:46.782Z,0.49
2018-02-02T06:26:56.749Z,0.48
2018-02-02T06:28:10.007Z,0.51
2018-02-02T06:29:19.992Z,0.59
2018-02-02T06:30:29.964Z,0.52
2018-02-02T06:31:39.940Z,0.61
2018-02-02T06:32:49.911Z,0.55
2018-02-02T06:33:59.959Z,0.55
2018-02-02T06:35:09.692Z,0.51
2018-02-02T06:36:19.415Z,0.61
2018-02-02T06:37:29.407Z,0.56
2018-02-02T06:38:39.404Z,0.61
2018-02-02T06:39:48.883Z,0.59
2018-02-02T06:40:58.617Z,0.63
2018-02-02T06:42:08.578Z,0.59
2018-02-02T06:43:18.262Z,0.58
2018-02-02T06:44:28.203Z,0.67
2018-02-02T06:45:37.884Z,0.61
2018-02-02T06:46:47.572Z,0.67
2018-02-02T06:47:57.548Z,0.7
2018-02-02T06:49:07.533Z,0.68
2018-02-02T06:50:17.516Z,0.73
2018-02-02T06:51:27.493Z,0.73
2018-02-02T06:52:37.494Z,0.66
2018-02-02T06:53:47.488Z,0.73
2018-02-02T06:54:57.201Z,0.71
2018-02-02T06:56:06.924Z,0.7
2018-02-02T06:57:16.925Z,0.68
2018-02-02T06:58:26.908Z,0.7
2018-02-02T06:59:36.632Z,0.68
2018-02-02T07:00:46.362Z,0.7
2018-02-02T07:01:56.352Z,0.71
2018-02-02T07:03:06.342Z,0.68
2018-02-02T07:04:16.076Z,0.7
2018-02-02T07:05:26.047Z,0.66
2018-02-02T07:06:35.768Z,0.68
2018-02-02T07:07:45.757Z,0.68
2018-02-02T07:08:55.731Z,0.71
2018-02-02T07:10:05.198Z,0.71
2018-02-02T07:11:15.252Z,0.7
2018-02-02T07:12:24.728Z,0.81
2018-02-02T07:13:34.447Z,0.78
2018-02-02T07:14:44.444Z,0.78
2018-02-02T07:15:54.150Z,0.76
2018-02-02T07:17:03.883Z,0.84
2018-02-02T07:18:13.873Z,0.92
2018-02-02T07:19:23.847Z,0.95
2018-02-02T07:20:34.091Z,0.88
2018-02-02T07:21:44.117Z,0.89
2018-02-02T07:22:53.869Z,0.96
2018-02-02T07:24:03.333Z,0.95
2018-02-02T07:25:13.313Z,0.99
2018-02-02T07:26:23.039Z,1
2018-02-02T07:27:33.030Z,1.18
2018-02-02T07:28:43.042Z,1.1
2018-02-02T07:29:52.780Z,1.03
2018-02-02T07:31:02.808Z,1.12
2018-02-02T07:32:12.542Z,1.2
2018-02-02T07:33:22.258Z,1.09
2018-02-02T07:34:32.246Z,1.09
2018-02-02T07:35:42.246Z,1.18
2018-02-02T07:36:52.230Z,1.12
2018-02-02T07:38:02.236Z,1.12
2018-02-02T07:39:12.241Z,1.24
2018-02-02T07:40:22.225Z,1.18
2018-02-02T07:41:32.218Z,1.22
2018-02-02T07:42:41.954Z,1.18
2018-02-02T07:43:51.943Z,1.25
2018-02-02T07:45:01.930Z,1.31
2018-02-02T07:46:11.677Z,1.34
2018-02-02T07:47:21.681Z,1.34
2018-02-02T07:48:31.716Z,1.34
2018-02-02T07:49:41.705Z,1.32
2018-02-02T07:50:51.698Z,1.36
2018-02-02T07:52:00.920Z,1.43
2018-02-02T07:53:10.233Z,1.34
2018-02-02T07:54:20.226Z,1.48
2018-02-02T07:55:30.203Z,1.39
2018-02-02T07:56:40.184Z,1.43
2018-02-02T07:57:49.937Z,1.53
2018-02-02T07:58:59.667Z,1.57
2018-02-02T08:00:09.150Z,1.39
2018-02-02T08:01:19.243Z,1.48
2018-02-02T08:02:29.253Z,1.5
2018-02-02T08:03:38.990Z,1.5
2018-02-02T08:04:48.713Z,1.53
2018-02-02T08:05:58.697Z,1.5
2018-02-02T08:07:08.418Z,1.58
2018-02-02T08:08:18.407Z,1.49
2018-02-02T08:09:28.407Z,1.5
2018-02-02T08:10:38.487Z,1.57
2018-02-02T08:11:48.198Z,1.5
2018-02-02T08:12:57.922Z,1.52
2018-02-02T08:14:07.910Z,1.57
2018-02-02T08:15:17.903Z,1.52
2018-02-02T08:16:27.881Z,1.53
2018-02-02T08:17:37.623Z,1.56
2018-02-02T08:18:47.864Z,1.56
2018-02-02T08:19:57.847Z,1.52
2018-02-02T08:21:07.673Z,1.5
2018-02-02T08:22:17.665Z,1.58
2018-02-02T08:23:27.409Z,1.5
2018-02-02T08:24:37.403Z,1.48
2018-02-02T08:25:47.132Z,1.53
2018-02-02T08:26:56.857Z,1.58
2018-02-02T08:28:07.101Z,1.56
2018-02-02T08:29:17.094Z,1.63
2018-02-02T08:30:27.063Z,1.58
2018-02-02T08:31:37.055Z,1.61
2018-02-02T08:32:47.058Z,1.71
2018-02-02T08:33:56.780Z,1.7
2018-02-02T08:35:06.780Z,1.76
2018-02-02T08:36:16.799Z,1.81
2018-02-02T08:37:26.800Z,1.81
2018-02-02T08:38:36.269Z,1.84
2018-02-02T08:39:46.245Z,1.86
2018-02-02T08:40:56.246Z,1.95
2018-02-02T08:42:06.264Z,1.95
2018-02-02T08:43:16.241Z,1.93
2018-02-02T08:44:26.239Z,1.97
2018-02-02T08:45:36.241Z,2.01
2018-02-02T08:46:46.225Z,2
2018-02-02T08:47:56.219Z,2.04
2018-02-02T08:49:06.300Z,2.07
2018-02-02T08:50:16.305Z,2.1
2018-02-02T08:51:26.294Z,2.18
2018-02-02T08:52:36.051Z,2.21
2018-02-02T08:53:45.809Z,2.23
2018-02-02T08:54:55.800Z,2.22
2018-02-02T08:56:05.531Z,2.33
2018-02-02T08:57:15.525Z,2.28
2018-02-02T08:58:25.261Z,2.39
2018-02-02T08:59:35.256Z,2.32
2018-02-02T09:00:45.289Z,2.39
2018-02-02T09:01:55.033Z,2.36
2018-02-02T09:03:04.756Z,2.4
2018-02-02T09:04:14.756Z,2.44
2018-02-02T09:05:24.756Z,2.41
2018-02-02T09:06:34.739Z,2.43
2018-02-02T09:07:44.719Z,2.41
2018-02-02T09:08:54.476Z,2.39
2018-02-02T09:10:04.472Z,2.39
2018-02-02T09:11:14.501Z,2.37
2018-02-02T09:12:24.230Z,2.4
2018-02-02T09:13:34.214Z,2.44
2018-02-02T09:14:43.961Z,2.41
2018-02-02T09:15:53.709Z,2.47
2018-02-02T09:17:03.703Z,2.4
2018-02-02T09:18:13.712Z,2.52
2018-02-02T09:19:23.710Z,2.5
2018-02-02T09:20:33.428Z,2.44
2018-02-02T09:21:43.420Z,2.47
2018-02-02T09:22:53.431Z,2.51
2018-02-02T09:24:03.417Z,2.57
2018-02-02T09:25:12.906Z,2.73
2018-02-02T09:26:22.644Z,2.83
2018-02-02T09:27:32.650Z,2.85
2018-02-02T09:28:42.410Z,2.95
2018-02-02T09:29:52.419Z,2.93
2018-02-02T09:31:02.168Z,3
2018-02-02T09:32:11.935Z,3.09
2018-02-02T09:33:21.679Z,3.13
2018-02-02T09:34:31.673Z,3.11
2018-02-02T09:35:41.411Z,3.13
2018-02-02T09:36:51.414Z,3.22
2018-02-02T09:38:01.130Z,3.31
2018-02-02T09:39:10.881Z,3.33
2018-02-02T09:40:20.912Z,3.46
2018-02-02T09:41:30.880Z,3.49
2018-02-02T09:42:40.889Z,3.53
2018-02-02T09:43:50.891Z,3.55
2018-02-02T09:45:00.864Z,3.58
2018-02-02T09:46:10.880Z,3.64
2018-02-02T09:47:20.655Z,3.85
2018-02-02T09:48:30.633Z,3.94
2018-02-02T09:49:40.400Z,4.09
2018-02-02T09:50:50.396Z,4.28
2018-02-02T09:52:00.137Z,4.52
2018-02-02T09:53:09.608Z,4.75
2018-02-02T09:54:19.352Z,4.82
2018-02-02T09:55:29.362Z,4.64
2018-02-02T09:56:39.368Z,4.66
2018-02-02T09:57:49.098Z,4.75
2018-02-02T09:58:58.833Z,4.74
2018-02-02T10:00:08.581Z,5.02
2018-02-02T10:01:18.609Z,5.16
2018-02-02T10:02:28.608Z,5.2
2018-02-02T10:03:38.603Z,5.19
2018-02-02T10:04:48.603Z,5.18
2018-02-02T10:05:58.324Z,5.19
2018-02-02T10:07:08.068Z,5.28
2018-02-02T10:08:17.794Z,5.34
2018-02-02T10:09:27.794Z,5.49
2018-02-02T10:10:37.859Z,5.55
2018-02-02T10:11:47.595Z,5.7
2018-02-02T10:12:57.593Z,5.62
2018-02-02T10:14:07.590Z,5.81
2018-02-02T10:15:17.334Z,5.55
2018-02-02T10:16:27.073Z,5.58
2018-02-02T10:17:37.073Z,5.74
2018-02-02T10:18:47.079Z,5.69
2018-02-02T10:19:57.079Z,5.73
2018-02-02T10:21:07.094Z,5.99
2018-02-02T10:22:17.091Z,6.1
2018-02-02T10:23:27.100Z,6.13
2018-02-02T10:24:36.831Z,6.1
2018-02-02T10:25:46.583Z,6.26
2018-02-02T10:26:56.596Z,6.13
2018-02-02T10:28:06.597Z,6.16
2018-02-02T10:29:16.337Z,5.94
2018-02-02T10:30:26.086Z,5.91
2018-02-02T10:31:36.038Z,6.1
2018-02-02T10:32:45.747Z,6.31
2018-02-02T10:33:55.732Z,6.41
2018-02-02T10:35:05.167Z,6.35
2018-02-02T10:36:14.612Z,6.32
2018-02-02T10:37:24.580Z,6.01
2018-02-02T10:38:34.535Z,5.94
2018-02-02T10:39:44.486Z,5.95
2018-02-02T10:40:54.218Z,5.91
2018-02-02T10:42:04.168Z,5.84
2018-02-02T10:43:14.131Z,5.95
2018-02-02T10:44:24.124Z,5.7
2018-02-02T10:45:33.837Z,5.91
2018-02-02T10:46:43.808Z,5.72
2018-02-02T10:47:53.769Z,5.84
2018-02-02T10:49:03.473Z,5.76
2018-02-02T10:50:13.443Z,5.67
2018-02-02T10:51:22.876Z,5.31
2018-02-02T10:52:32.835Z,5.28
2018-02-02T10:53:42.816Z,5.22
2018-02-02T10:54:52.522Z,5.18
2018-02-02T10:56:02.501Z,5.16
2018-02-02T10:57:11.935Z,5.13
2018-02-02T10:58:21.126Z,5.05
2018-02-02T10:59:31.118Z,4.98
2018-02-02T11:00:40.868Z,4.95
2018-02-02T11:01:50.560Z,4.86
2018-02-02T11:03:00.069Z,4.9
2018-02-02T11:04:09.775Z,4.87
2018-02-02T11:05:19.754Z,4.92
2018-02-02T11:06:29.207Z,5.02
2018-02-02T11:07:39.230Z,5.01
2018-02-02T11:08:49.179Z,5.12
2018-02-02T11:09:58.886Z,5.13
2018-02-02T11:11:08.844Z,5.15
2018-02-02T11:12:18.816Z,5.26
2018-02-02T11:13:28.508Z,5.29
2018-02-02T11:14:37.949Z,5.36
2018-02-02T11:15:47.635Z,5.51
2018-02-02T11:16:57.592Z,5.67
2018-02-02T11:18:07.547Z,5.55
2018-02-02T11:19:17.490Z,5.54
2018-02-02T11:20:27.449Z,5.69
2018-02-02T11:21:37.493Z,5.67
2018-02-02T11:22:47.443Z,5.69
2018-02-02T11:23:57.404Z,5.62
2018-02-02T11:25:07.122Z,5.62
2018-02-02T11:26:17.079Z,5.76
2018-02-02T11:27:27.029Z,5.87
2018-02-02T11:28:36.988Z,5.9
2018-02-02T11:29:46.952Z,5.91
2018-02-02T11:30:56.898Z,5.69
2018-02-02T11:32:06.895Z,5.69
2018-02-02T11:33:16.874Z,5.67
2018-02-02T11:34:26.856Z,5.56
2018-02-02T11:35:36.820Z,5.54
2018-02-02T11:36:46.777Z,5.56
2018-02-02T11:37:56.740Z,5.61
2018-02-02T11:39:06.697Z,5.59
2018-02-02T11:40:16.406Z,5.46
2018-02-02T11:41:26.361Z,5.36
2018-02-02T11:42:36.314Z,5.15
2018-02-02T11:43:46.286Z,5.25
2018-02-02T11:44:56.241Z,5.18
2018-02-02T11:46:06.193Z,5.19
2018-02-02T11:47:15.891Z,5.22
2018-02-02T11:48:25.582Z,5.22
2018-02-02T11:49:35.545Z,5.33
2018-02-02T11:50:45.511Z,5.29
2018-02-02T11:51:55.472Z,5.13
2018-02-02T11:53:05.241Z,5.12
2018-02-02T11:54:15.198Z,5.07
2018-02-02T11:55:25.154Z,5.1
2018-02-02T11:56:34.850Z,5.15
2018-02-02T11:57:44.824Z,5.13
2018-02-02T11:58:54.798Z,5.23
2018-02-02T12:00:04.806Z,5.22
2018-02-02T12:01:14.506Z,5.16
2018-02-02T12:02:24.467Z,5.18
2018-02-02T12:03:33.901Z,4.98
2018-02-02T12:04:43.860Z,5.04
2018-02-02T12:05:53.827Z,5.02
2018-02-02T12:07:03.820Z,5.01
2018-02-02T12:08:13.764Z,4.95
2018-02-02T12:09:23.728Z,5.01
2018-02-02T12:10:33.673Z,5.01
2018-02-02T12:11:43.630Z,5.04
2018-02-02T12:12:53.597Z,5.05
2018-02-02T12:14:03.542Z,5.02
2018-02-02T12:15:13.102Z,4.95
2018-02-02T12:16:22.813Z,5.01
2018-02-02T12:17:32.523Z,5.01
2018-02-02T12:18:42.492Z,5.05
2018-02-02T12:19:52.467Z,5
2018-02-02T12:21:02.669Z,5.07
2018-02-02T12:22:12.636Z,5.05
2018-02-02T12:23:22.076Z,5
2018-02-02T12:24:31.784Z,5.04
2018-02-02T12:25:41.975Z,4.9
2018-02-02T12:26:51.923Z,5
2018-02-02T12:28:01.897Z,4.95
2018-02-02T12:29:11.607Z,4.97
2018-02-02T12:30:21.309Z,4.87
2018-02-02T12:31:31.261Z,4.86
2018-02-02T12:32:41.216Z,4.83
2018-02-02T12:33:50.938Z,4.86
2018-02-02T12:35:00.963Z,4.82
2018-02-02T12:36:10.931Z,4.71
2018-02-02T12:37:20.884Z,4.86
2018-02-02T12:38:30.837Z,4.83
2018-02-02T12:39:40.795Z,4.78
2018-02-02T12:40:50.818Z,4.71
2018-02-02T12:42:00.519Z,4.84
2018-02-02T12:43:10.458Z,4.68
2018-02-02T12:44:20.504Z,4.82
2018-02-02T12:45:30.466Z,4.67
2018-02-02T12:46:40.428Z,4.7
2018-02-02T12:47:50.407Z,4.71
2018-02-02T12:49:00.092Z,4.79
2018-02-02T12:50:09.803Z,4.82
2018-02-02T12:51:19.508Z,4.9
2018-02-02T12:52:29.468Z,4.87
2018-02-02T12:53:39.435Z,4.83
2018-02-02T12:54:49.395Z,4.89
2018-02-02T12:55:59.337Z,4.74
2018-02-02T12:57:09.288Z,4.82
2018-02-02T12:58:19.250Z,4.89
2018-02-02T12:59:29.200Z,4.74
2018-02-02T13:00:38.650Z,4.78
2018-02-02T13:01:48.623Z,4.9
2018-02-02T13:02:58.310Z,4.86
2018-02-02T13:04:07.739Z,4.75
2018-02-02T13:05:17.429Z,4.82
2018-02-02T13:06:27.197Z,4.89
2018-02-02T13:07:37.205Z,4.84
2018-02-02T13:08:46.901Z,4.86
2018-02-02T13:09:56.604Z,4.86
2018-02-02T13:11:06.557Z,4.84
2018-02-02T13:12:16.577Z,4.87
2018-02-02T13:13:26.007Z,4.97
2018-02-02T13:14:35.989Z,4.92
2018-02-02T13:15:45.678Z,4.95
2018-02-02T13:16:55.639Z,4.97
2018-02-02T13:18:05.599Z,4.95
2018-02-02T13:19:15.560Z,4.86
2018-02-02T13:20:25.516Z,5.01
2018-02-02T13:21:35.213Z,4.9
2018-02-02T13:22:45.220Z,5.05
2018-02-02T13:23:55.195Z,5
2018-02-02T13:25:05.152Z,5.02
2018-02-02T13:26:15.120Z,4.98
2018-02-02T13:27:25.086Z,4.87
2018-02-02T13:28:34.838Z,4.95
2018-02-02T13:29:44.538Z,5
2018-02-02T13:30:54.500Z,5.05
2018-02-02T13:32:04.454Z,4.9
2018-02-02T13:33:14.409Z,4.98
2018-02-02T13:34:23.851Z,4.98
2018-02-02T13:35:34.064Z,5
2018-02-02T13:36:43.746Z,5.04
2018-02-02T13:37:53.432Z,5.02
2018-02-02T13:39:03.376Z,4.97
2018-02-02T13:40:13.077Z,5
2018-02-02T13:41:22.772Z,4.98
2018-02-02T13:42:32.736Z,5.01
2018-02-02T13:43:42.691Z,5.04
2018-02-02T13:44:52.675Z,5.02
2018-02-02T13:46:02.641Z,5.05
2018-02-02T13:47:12.594Z,4.95
2018-02-02T13:48:22.663Z,5.1
2018-02-02T13:49:32.406Z,5.02
2018-02-02T13:50:42.350Z,5.07
2018-02-02T13:51:52.048Z,5.05
2018-02-02T13:53:02.012Z,5.05
2018-02-02T13:54:12.034Z,5.05
2018-02-02T13:55:21.474Z,5.02
2018-02-02T13:56:31.190Z,5.15
2018-02-02T13:57:41.146Z,5.15
2018-02-02T13:58:51.121Z,5.15
2018-02-02T14:00:01.096Z,5.19
2018-02-02T14:01:10.798Z,5.16
2018-02-02T14:02:20.486Z,5.19
2018-02-02T14:03:30.431Z,5.15
2018-02-02T14:04:39.888Z,5.1
2018-02-02T14:05:49.838Z,5.08
2018-02-02T14:06:59.015Z,5.12
2018-02-02T14:08:08.753Z,5.07
2018-02-02T14:09:18.440Z,5.15
2018-02-02T14:10:27.876Z,5.12
2018-02-02T14:11:37.848Z,5.07
2018-02-02T14:12:47.832Z,5.18
2018-02-02T14:13:57.539Z,5.15
2018-02-02T14:15:07.257Z,5.19
2018-02-02T14:16:17.198Z,5.15
2018-02-02T14:17:27.152Z,5.07
2018-02-02T14:18:37.093Z,5.15
2018-02-02T14:19:47.130Z,5
2018-02-02T14:20:56.819Z,5.1
2018-02-02T14:22:06.770Z,5.01
2018-02-02T14:23:16.749Z,5
2018-02-02T14:24:26.712Z,5.05
2018-02-02T14:25:36.397Z,5.04
2018-02-02T14:26:46.347Z,5.02
2018-02-02T14:27:56.300Z,4.98
2018-02-02T14:29:05.999Z,5
2018-02-02T14:30:15.950Z,4.98
2018-02-02T14:31:25.638Z,4.98
2018-02-02T14:32:35.335Z,5.07
2018-02-02T14:33:45.299Z,5.02
2018-02-02T14:34:55.255Z,5.01
2018-02-02T14:36:04.946Z,5.05
2018-02-02T14:37:14.645Z,4.95
2018-02-02T14:38:24.599Z,4.9
2018-02-02T14:39:34.548Z,4.94
2018-02-02T14:40:44.249Z,4.98
2018-02-02T14:41:54.204Z,4.98
2018-02-02T14:43:03.396Z,4.95
2018-02-02T14:44:13.105Z,4.89
2018-02-02T14:45:22.845Z,5
2018-02-02T14:46:32.795Z,4.95
2018-02-02T14:47:42.513Z,4.95
2018-02-02T14:48:52.467Z,4.92
2018-02-02T14:50:01.644Z,4.79
2018-02-02T14:51:11.604Z,4.98
2018-02-02T14:52:21.563Z,4.98
2018-02-02T14:53:31.259Z,4.98
2018-02-02T14:54:40.963Z,4.86
2018-02-02T14:55:50.920Z,4.84
2018-02-02T14:57:00.352Z,4.82
2018-02-02T14:58:10.302Z,4.92
2018-02-02T14:59:20.284Z,4.75
2018-02-02T15:00:30.252Z,4.78
2018-02-02T15:01:39.952Z,4.75
2018-02-02T15:02:49.665Z,4.78
2018-02-02T15:03:59.623Z,4.7
2018-02-02T15:05:09.092Z,4.75
2018-02-02T15:06:18.800Z,4.7
2018-02-02T15:07:28.757Z,4.7
2018-02-02T15:08:38.700Z,4.68
2018-02-02T15:09:48.741Z,4.63
2018-02-02T15:10:58.189Z,4.63
2018-02-02T15:12:08.141Z,4.52
2018-02-02T15:13:18.117Z,4.58
2018-02-02T15:14:27.819Z,4.57
2018-02-02T15:15:37.250Z,4.58
2018-02-02T15:16:47.208Z,4.6
2018-02-02T15:17:57.203Z,4.58
2018-02-02T15:19:07.151Z,4.57
2018-02-02T15:20:17.194Z,4.6
2018-02-02T15:21:27.178Z,4.58
2018-02-02T15:22:36.899Z,4.53
2018-02-02T15:23:46.584Z,4.57
2018-02-02T15:24:56.533Z,4.5
2018-02-02T15:26:06.496Z,4.52
2018-02-02T15:27:16.188Z,4.49
2018-02-02T15:28:26.153Z,4.48
2018-02-02T15:29:36.103Z,4.52
2018-02-02T15:30:46.054Z,4.45
2018-02-02T15:31:55.750Z,4.46
2018-02-02T15:33:05.713Z,4.48
2018-02-02T15:34:15.688Z,4.36